sensor_id;sensor_type;location;lat;lon;timestamp;P1;durP1;ratioP1;P2;durP2;ratioP2
6223;SDS011;3145;42.726;23.342;2022-11-15T00:01:07;155.80;;;84.23;;
6223;SDS011;3145;42.726;23.342;2022-11-15T00:03:34;225.67;;;116.07;;
6223;SDS011;3145;42.726;23.342;2022-11-15T00:06:01;228.53;;;118.23;;
6223;SDS011;3145;42.726;23.342;2022-11-15T00:08:29;231.03;;;116.97;;
6223;SDS011;3145;42.726;23.342;2022-11-15T00:10:57;238.67;;;125.63;;
6223;SDS011;3145;42.726;23.342;2022-11-15T00:13:26;233.47;;;122.23;;
6223;SDS011;3145;42.726;23.342;2022-11-15T00:15:56;218.07;;;118.53;;
6223;SDS011;3145;42.726;23.342;2022-11-15T00:18:23;210.77;;;111.30;;
6223;SDS011;3145;42.726;23.342;2022-11-15T00:20:50;235.97;;;124.80;;
6223;SDS011;3145;42.726;23.342;2022-11-15T00:23:17;220.00;;;120.83;;
6223;SDS011;3145;42.726;23.342;2022-11-15T00:25:43;208.13;;;118.43;;
6223;SDS011;3145;42.726;23.342;2022-11-15T00:28:10;204.83;;;110.13;;
6223;SDS011;3145;42.726;23.342;2022-11-15T00:30:37;221.97;;;119.93;;
6223;SDS011;3145;42.726;23.342;2022-11-15T00:33:05;237.80;;;124.90;;
6223;SDS011;3145;42.726;23.342;2022-11-15T00:35:33;230.70;;;117.83;;
6223;SDS011;3145;42.726;23.342;2022-11-15T00:38:00;216.47;;;118.20;;
6223;SDS011;3145;42.726;23.342;2022-11-15T00:40:28;212.97;;;112.60;;
6223;SDS011;3145;42.726;23.342;2022-11-15T00:42:55;212.17;;;113.17;;
6223;SDS011;3145;42.726;23.342;2022-11-15T00:45:22;204.87;;;108.03;;
6223;SDS011;3145;42.726;23.342;2022-11-15T00:47:50;187.87;;;103.13;;
6223;SDS011;3145;42.726;23.342;2022-11-15T00:50:18;182.10;;;99.87;;
6223;SDS011;3145;42.726;23.342;2022-11-15T00:52:45;198.50;;;103.30;;
6223;SDS011;3145;42.726;23.342;2022-11-15T00:55:13;174.57;;;94.07;;
6223;SDS011;3145;42.726;23.342;2022-11-15T00:57:41;179.47;;;89.20;;
6223;SDS011;3145;42.726;23.342;2022-11-15T01:00:08;176.73;;;94.87;;
6223;SDS011;3145;42.726;23.342;2022-11-15T01:02:35;183.57;;;94.83;;
6223;SDS011;3145;42.726;23.342;2022-11-15T01:05:02;180.20;;;98.90;;
6223;SDS011;3145;42.726;23.342;2022-11-15T01:07:30;194.00;;;100.97;;
6223;SDS011;3145;42.726;23.342;2022-11-15T01:09:57;172.50;;;95.53;;
6223;SDS011;3145;42.726;23.342;2022-11-15T01:12:24;182.57;;;95.83;;
6223;SDS011;3145;42.726;23.342;2022-11-15T01:14:50;182.70;;;94.17;;
6223;SDS011;3145;42.726;23.342;2022-11-15T01:17:17;178.20;;;92.80;;
6223;SDS011;3145;42.726;23.342;2022-11-15T01:19:44;159.10;;;85.40;;
6223;SDS011;3145;42.726;23.342;2022-11-15T01:22:10;164.60;;;83.87;;
6223;SDS011;3145;42.726;23.342;2022-11-15T01:24:39;157.07;;;83.57;;
6223;SDS011;3145;42.726;23.342;2022-11-15T01:27:05;157.20;;;83.63;;
6223;SDS011;3145;42.726;23.342;2022-11-15T01:29:32;153.20;;;79.03;;
6223;SDS011;3145;42.726;23.342;2022-11-15T01:31:59;152.80;;;81.97;;
6223;SDS011;3145;42.726;23.342;2022-11-15T01:34:26;154.57;;;84.50;;
6223;SDS011;3145;42.726;23.342;2022-11-15T01:36:52;170.47;;;86.40;;
6223;SDS011;3145;42.726;23.342;2022-11-15T01:39:19;159.77;;;87.03;;
6223;SDS011;3145;42.726;23.342;2022-11-15T01:41:47;158.53;;;86.20;;
6223;SDS011;3145;42.726;23.342;2022-11-15T01:44:34;159.23;;;84.73;;
6223;SDS011;3145;42.726;23.342;2022-11-15T01:47:08;138.90;;;79.20;;
6223;SDS011;3145;42.726;23.342;2022-11-15T01:49:39;129.63;;;73.30;;
6223;SDS011;3145;42.726;23.342;2022-11-15T01:52:11;136.57;;;74.43;;
6223;SDS011;3145;42.726;23.342;2022-11-15T01:54:41;130.83;;;75.70;;
6223;SDS011;3145;42.726;23.342;2022-11-15T01:57:10;132.27;;;72.13;;
6223;SDS011;3145;42.726;23.342;2022-11-15T01:59:39;128.33;;;73.17;;
6223;SDS011;3145;42.726;23.342;2022-11-15T02:02:08;139.33;;;76.60;;
6223;SDS011;3145;42.726;23.342;2022-11-15T02:04:35;135.40;;;77.43;;
6223;SDS011;3145;42.726;23.342;2022-11-15T02:07:06;142.47;;;74.67;;
6223;SDS011;3145;42.726;23.342;2022-11-15T02:09:35;127.40;;;73.10;;
6223;SDS011;3145;42.726;23.342;2022-11-15T02:12:03;130.20;;;73.00;;
6223;SDS011;3145;42.726;23.342;2022-11-15T02:14:31;123.47;;;68.40;;
6223;SDS011;3145;42.726;23.342;2022-11-15T02:17:01;125.80;;;69.60;;
6223;SDS011;3145;42.726;23.342;2022-11-15T02:19:48;139.03;;;73.50;;
6223;SDS011;3145;42.726;23.342;2022-11-15T02:22:37;137.93;;;68.83;;
6223;SDS011;3145;42.726;23.342;2022-11-15T02:25:29;123.60;;;68.60;;
6223;SDS011;3145;42.726;23.342;2022-11-15T02:28:16;131.70;;;70.17;;
6223;SDS011;3145;42.726;23.342;2022-11-15T02:31:11;158.70;;;66.77;;
6223;SDS011;3145;42.726;23.342;2022-11-15T02:33:48;166.23;;;73.33;;
6223;SDS011;3145;42.726;23.342;2022-11-15T02:36:29;146.03;;;70.23;;
6223;SDS011;3145;42.726;23.342;2022-11-15T02:39:03;153.90;;;67.50;;
6223;SDS011;3145;42.726;23.342;2022-11-15T02:41:37;139.77;;;65.27;;
6223;SDS011;3145;42.726;23.342;2022-11-15T02:44:11;139.13;;;70.53;;
6223;SDS011;3145;42.726;23.342;2022-11-15T02:46:44;149.47;;;68.97;;
6223;SDS011;3145;42.726;23.342;2022-11-15T02:49:32;144.10;;;66.20;;
6223;SDS011;3145;42.726;23.342;2022-11-15T02:52:00;154.03;;;71.70;;
6223;SDS011;3145;42.726;23.342;2022-11-15T02:54:28;156.03;;;76.50;;
6223;SDS011;3145;42.726;23.342;2022-11-15T02:56:58;162.93;;;75.43;;
6223;SDS011;3145;42.726;23.342;2022-11-15T03:02:42;170.73;;;76.67;;
6223;SDS011;3145;42.726;23.342;2022-11-15T03:05:24;166.63;;;77.73;;
6223;SDS011;3145;42.726;23.342;2022-11-15T03:07:57;172.43;;;76.07;;
6223;SDS011;3145;42.726;23.342;2022-11-15T03:10:32;173.03;;;74.37;;
6223;SDS011;3145;42.726;23.342;2022-11-15T03:13:10;209.07;;;75.27;;
6223;SDS011;3145;42.726;23.342;2022-11-15T03:15:47;174.83;;;74.73;;
6223;SDS011;3145;42.726;23.342;2022-11-15T03:18:26;203.47;;;77.20;;
6223;SDS011;3145;42.726;23.342;2022-11-15T03:20:58;214.67;;;75.63;;
6223;SDS011;3145;42.726;23.342;2022-11-15T03:23:29;200.30;;;79.87;;
6223;SDS011;3145;42.726;23.342;2022-11-15T03:25:57;205.10;;;76.13;;
6223;SDS011;3145;42.726;23.342;2022-11-15T03:28:27;213.53;;;74.83;;
6223;SDS011;3145;42.726;23.342;2022-11-15T03:30:58;203.53;;;76.50;;
6223;SDS011;3145;42.726;23.342;2022-11-15T03:33:51;256.63;;;83.50;;
6223;SDS011;3145;42.726;23.342;2022-11-15T03:36:21;262.53;;;83.07;;
6223;SDS011;3145;42.726;23.342;2022-11-15T03:38:49;262.97;;;85.23;;
6223;SDS011;3145;42.726;23.342;2022-11-15T03:41:21;305.37;;;86.67;;
6223;SDS011;3145;42.726;23.342;2022-11-15T03:43:52;275.47;;;83.77;;
6223;SDS011;3145;42.726;23.342;2022-11-15T03:46:24;503.90;;;110.27;;
6223;SDS011;3145;42.726;23.342;2022-11-15T03:48:57;342.13;;;87.17;;
6223;SDS011;3145;42.726;23.342;2022-11-15T03:51:30;400.50;;;93.03;;
6223;SDS011;3145;42.726;23.342;2022-11-15T03:53:57;332.20;;;95.73;;
6223;SDS011;3145;42.726;23.342;2022-11-15T03:56:24;365.60;;;85.93;;
6223;SDS011;3145;42.726;23.342;2022-11-15T03:58:50;607.17;;;179.73;;
6223;SDS011;3145;42.726;23.342;2022-11-15T04:01:17;368.73;;;109.03;;
6223;SDS011;3145;42.726;23.342;2022-11-15T04:03:44;295.53;;;87.83;;
6223;SDS011;3145;42.726;23.342;2022-11-15T04:06:12;423.67;;;108.17;;
6223;SDS011;3145;42.726;23.342;2022-11-15T04:08:38;290.00;;;77.67;;
6223;SDS011;3145;42.726;23.342;2022-11-15T04:11:05;376.67;;;105.97;;
6223;SDS011;3145;42.726;23.342;2022-11-15T04:13:32;464.10;;;128.03;;
6223;SDS011;3145;42.726;23.342;2022-11-15T04:15:59;246.10;;;73.83;;
6223;SDS011;3145;42.726;23.342;2022-11-15T04:18:25;334.30;;;86.57;;
6223;SDS011;3145;42.726;23.342;2022-11-15T04:20:52;416.20;;;99.13;;
6223;SDS011;3145;42.726;23.342;2022-11-15T04:23:37;392.83;;;89.70;;
6223;SDS011;3145;42.726;23.342;2022-11-15T04:26:27;256.53;;;82.37;;
6223;SDS011;3145;42.726;23.342;2022-11-15T04:28:53;394.90;;;90.07;;
6223;SDS011;3145;42.726;23.342;2022-11-15T04:31:52;271.33;;;76.00;;
6223;SDS011;3145;42.726;23.342;2022-11-15T04:34:19;191.23;;;59.50;;
6223;SDS011;3145;42.726;23.342;2022-11-15T04:36:45;265.13;;;65.63;;
6223;SDS011;3145;42.726;23.342;2022-11-15T04:39:31;423.40;;;79.00;;
6223;SDS011;3145;42.726;23.342;2022-11-15T04:41:57;279.00;;;66.33;;
6223;SDS011;3145;42.726;23.342;2022-11-15T04:44:24;330.17;;;69.53;;
6223;SDS011;3145;42.726;23.342;2022-11-15T04:46:51;159.73;;;58.90;;
6223;SDS011;3145;42.726;23.342;2022-11-15T04:49:17;267.50;;;65.57;;
6223;SDS011;3145;42.726;23.342;2022-11-15T04:51:44;181.33;;;61.57;;
6223;SDS011;3145;42.726;23.342;2022-11-15T04:54:11;272.57;;;79.40;;
6223;SDS011;3145;42.726;23.342;2022-11-15T04:56:39;213.87;;;69.17;;
6223;SDS011;3145;42.726;23.342;2022-11-15T04:59:05;199.30;;;72.40;;
6223;SDS011;3145;42.726;23.342;2022-11-15T05:01:32;187.33;;;66.50;;
6223;SDS011;3145;42.726;23.342;2022-11-15T05:03:59;183.30;;;64.13;;
6223;SDS011;3145;42.726;23.342;2022-11-15T05:06:43;169.17;;;60.80;;
6223;SDS011;3145;42.726;23.342;2022-11-15T05:09:09;144.30;;;63.23;;
6223;SDS011;3145;42.726;23.342;2022-11-15T05:11:39;181.53;;;69.93;;
6223;SDS011;3145;42.726;23.342;2022-11-15T05:14:07;179.00;;;64.90;;
6223;SDS011;3145;42.726;23.342;2022-11-15T05:16:34;146.77;;;58.43;;
6223;SDS011;3145;42.726;23.342;2022-11-15T05:19:01;168.87;;;62.33;;
6223;SDS011;3145;42.726;23.342;2022-11-15T05:21:27;183.83;;;67.10;;
6223;SDS011;3145;42.726;23.342;2022-11-15T05:23:54;169.83;;;67.27;;
6223;SDS011;3145;42.726;23.342;2022-11-15T05:26:21;196.70;;;69.83;;
6223;SDS011;3145;42.726;23.342;2022-11-15T05:28:52;221.93;;;75.17;;
6223;SDS011;3145;42.726;23.342;2022-11-15T05:31:20;241.17;;;77.77;;
6223;SDS011;3145;42.726;23.342;2022-11-15T05:33:48;217.20;;;75.87;;
6223;SDS011;3145;42.726;23.342;2022-11-15T05:36:17;446.63;;;121.00;;
6223;SDS011;3145;42.726;23.342;2022-11-15T05:38:47;350.93;;;97.17;;
6223;SDS011;3145;42.726;23.342;2022-11-15T05:41:15;218.27;;;78.10;;
6223;SDS011;3145;42.726;23.342;2022-11-15T05:43:44;300.10;;;81.50;;
6223;SDS011;3145;42.726;23.342;2022-11-15T05:46:13;207.83;;;74.83;;
6223;SDS011;3145;42.726;23.342;2022-11-15T05:48:41;258.37;;;80.83;;
6223;SDS011;3145;42.726;23.342;2022-11-15T05:51:11;241.80;;;77.37;;
6223;SDS011;3145;42.726;23.342;2022-11-15T05:53:41;198.13;;;78.47;;
6223;SDS011;3145;42.726;23.342;2022-11-15T05:56:08;221.50;;;82.87;;
6223;SDS011;3145;42.726;23.342;2022-11-15T05:58:35;206.13;;;82.40;;
6223;SDS011;3145;42.726;23.342;2022-11-15T06:01:03;211.07;;;83.60;;
6223;SDS011;3145;42.726;23.342;2022-11-15T06:03:32;251.93;;;93.87;;
6223;SDS011;3145;42.726;23.342;2022-11-15T06:05:59;293.40;;;102.73;;
6223;SDS011;3145;42.726;23.342;2022-11-15T06:08:26;466.10;;;137.37;;
6223;SDS011;3145;42.726;23.342;2022-11-15T06:10:53;307.20;;;111.40;;
6223;SDS011;3145;42.726;23.342;2022-11-15T06:13:20;244.63;;;92.53;;
6223;SDS011;3145;42.726;23.342;2022-11-15T06:15:46;197.97;;;78.47;;
6223;SDS011;3145;42.726;23.342;2022-11-15T06:18:13;208.93;;;78.30;;
6223;SDS011;3145;42.726;23.342;2022-11-15T06:20:41;201.33;;;84.43;;
6223;SDS011;3145;42.726;23.342;2022-11-15T06:23:08;229.73;;;96.93;;
6223;SDS011;3145;42.726;23.342;2022-11-15T06:25:34;208.03;;;85.50;;
6223;SDS011;3145;42.726;23.342;2022-11-15T06:28:01;231.47;;;82.63;;
6223;SDS011;3145;42.726;23.342;2022-11-15T06:30:28;216.73;;;90.97;;
6223;SDS011;3145;42.726;23.342;2022-11-15T06:32:58;220.17;;;97.23;;
6223;SDS011;3145;42.726;23.342;2022-11-15T06:35:27;260.53;;;100.53;;
6223;SDS011;3145;42.726;23.342;2022-11-15T06:37:55;332.73;;;115.57;;
6223;SDS011;3145;42.726;23.342;2022-11-15T06:40:27;279.33;;;107.40;;
6223;SDS011;3145;42.726;23.342;2022-11-15T06:42:56;282.10;;;121.93;;
6223;SDS011;3145;42.726;23.342;2022-11-15T06:45:24;293.90;;;110.60;;
6223;SDS011;3145;42.726;23.342;2022-11-15T06:47:51;237.97;;;99.07;;
6223;SDS011;3145;42.726;23.342;2022-11-15T06:50:17;233.07;;;96.03;;
6223;SDS011;3145;42.726;23.342;2022-11-15T06:52:44;373.03;;;127.33;;
6223;SDS011;3145;42.726;23.342;2022-11-15T06:55:12;356.73;;;125.43;;
6223;SDS011;3145;42.726;23.342;2022-11-15T06:57:45;325.37;;;115.07;;
6223;SDS011;3145;42.726;23.342;2022-11-15T07:00:13;251.73;;;91.57;;
6223;SDS011;3145;42.726;23.342;2022-11-15T07:02:41;263.27;;;88.23;;
6223;SDS011;3145;42.726;23.342;2022-11-15T07:05:08;259.97;;;81.03;;
6223;SDS011;3145;42.726;23.342;2022-11-15T07:07:35;287.03;;;92.37;;
6223;SDS011;3145;42.726;23.342;2022-11-15T07:10:01;214.63;;;79.83;;
6223;SDS011;3145;42.726;23.342;2022-11-15T07:12:30;254.33;;;84.10;;
6223;SDS011;3145;42.726;23.342;2022-11-15T07:14:56;226.47;;;88.30;;
6223;SDS011;3145;42.726;23.342;2022-11-15T07:17:23;229.70;;;92.20;;
6223;SDS011;3145;42.726;23.342;2022-11-15T07:19:50;264.43;;;95.97;;
6223;SDS011;3145;42.726;23.342;2022-11-15T07:22:16;237.70;;;73.60;;
6223;SDS011;3145;42.726;23.342;2022-11-15T07:24:43;147.83;;;58.77;;
6223;SDS011;3145;42.726;23.342;2022-11-15T07:27:10;155.97;;;61.70;;
6223;SDS011;3145;42.726;23.342;2022-11-15T07:29:38;144.73;;;59.90;;
6223;SDS011;3145;42.726;23.342;2022-11-15T07:32:04;119.63;;;50.30;;
6223;SDS011;3145;42.726;23.342;2022-11-15T07:34:31;123.37;;;50.93;;
6223;SDS011;3145;42.726;23.342;2022-11-15T07:36:58;111.27;;;43.90;;
6223;SDS011;3145;42.726;23.342;2022-11-15T07:39:24;99.90;;;47.23;;
6223;SDS011;3145;42.726;23.342;2022-11-15T07:41:51;89.40;;;38.77;;
6223;SDS011;3145;42.726;23.342;2022-11-15T07:44:39;100.27;;;42.73;;
6223;SDS011;3145;42.726;23.342;2022-11-15T07:47:06;102.07;;;44.30;;
6223;SDS011;3145;42.726;23.342;2022-11-15T07:49:33;90.17;;;42.53;;
6223;SDS011;3145;42.726;23.342;2022-11-15T07:52:00;106.17;;;42.67;;
6223;SDS011;3145;42.726;23.342;2022-11-15T07:54:26;98.90;;;40.67;;
6223;SDS011;3145;42.726;23.342;2022-11-15T07:56:53;98.13;;;40.73;;
6223;SDS011;3145;42.726;23.342;2022-11-15T07:59:20;75.03;;;37.50;;
6223;SDS011;3145;42.726;23.342;2022-11-15T08:01:48;89.00;;;40.93;;
6223;SDS011;3145;42.726;23.342;2022-11-15T08:04:14;95.03;;;42.80;;
6223;SDS011;3145;42.726;23.342;2022-11-15T08:06:41;100.57;;;45.97;;
6223;SDS011;3145;42.726;23.342;2022-11-15T08:09:08;81.23;;;38.37;;
6223;SDS011;3145;42.726;23.342;2022-11-15T08:11:35;87.47;;;41.03;;
6223;SDS011;3145;42.726;23.342;2022-11-15T08:14:01;85.47;;;39.30;;
6223;SDS011;3145;42.726;23.342;2022-11-15T08:16:29;89.37;;;42.70;;
6223;SDS011;3145;42.726;23.342;2022-11-15T08:18:58;92.90;;;43.43;;
6223;SDS011;3145;42.726;23.342;2022-11-15T08:21:25;87.17;;;40.43;;
6223;SDS011;3145;42.726;23.342;2022-11-15T08:23:52;95.40;;;41.57;;
6223;SDS011;3145;42.726;23.342;2022-11-15T08:26:18;83.87;;;41.47;;
6223;SDS011;3145;42.726;23.342;2022-11-15T08:28:45;84.97;;;38.43;;
6223;SDS011;3145;42.726;23.342;2022-11-15T08:31:13;99.73;;;43.00;;
6223;SDS011;3145;42.726;23.342;2022-11-15T08:33:41;90.30;;;42.40;;
6223;SDS011;3145;42.726;23.342;2022-11-15T08:36:12;100.83;;;42.67;;
6223;SDS011;3145;42.726;23.342;2022-11-15T08:38:40;118.17;;;45.63;;
6223;SDS011;3145;42.726;23.342;2022-11-15T08:41:11;120.20;;;48.37;;
6223;SDS011;3145;42.726;23.342;2022-11-15T08:43:42;109.20;;;45.83;;
6223;SDS011;3145;42.726;23.342;2022-11-15T08:46:10;100.00;;;42.97;;
6223;SDS011;3145;42.726;23.342;2022-11-15T08:48:39;106.23;;;43.07;;
6223;SDS011;3145;42.726;23.342;2022-11-15T08:51:06;99.47;;;46.57;;
6223;SDS011;3145;42.726;23.342;2022-11-15T08:53:34;99.00;;;44.17;;
6223;SDS011;3145;42.726;23.342;2022-11-15T08:56:01;104.50;;;45.20;;
6223;SDS011;3145;42.726;23.342;2022-11-15T08:58:28;100.60;;;45.97;;
6223;SDS011;3145;42.726;23.342;2022-11-15T09:00:55;97.67;;;45.50;;
6223;SDS011;3145;42.726;23.342;2022-11-15T09:03:21;105.17;;;42.43;;
6223;SDS011;3145;42.726;23.342;2022-11-15T09:05:48;86.17;;;41.73;;
6223;SDS011;3145;42.726;23.342;2022-11-15T09:08:15;92.00;;;40.77;;
6223;SDS011;3145;42.726;23.342;2022-11-15T09:10:43;97.00;;;43.80;;
6223;SDS011;3145;42.726;23.342;2022-11-15T09:13:09;90.13;;;43.90;;
6223;SDS011;3145;42.726;23.342;2022-11-15T09:15:36;93.60;;;42.40;;
6223;SDS011;3145;42.726;23.342;2022-11-15T09:18:03;83.10;;;38.07;;
6223;SDS011;3145;42.726;23.342;2022-11-15T09:20:30;76.67;;;38.87;;
6223;SDS011;3145;42.726;23.342;2022-11-15T09:22:58;93.07;;;40.37;;
6223;SDS011;3145;42.726;23.342;2022-11-15T09:25:26;87.17;;;41.53;;
6223;SDS011;3145;42.726;23.342;2022-11-15T09:27:54;77.23;;;38.53;;
6223;SDS011;3145;42.726;23.342;2022-11-15T09:30:22;81.53;;;38.60;;
6223;SDS011;3145;42.726;23.342;2022-11-15T09:32:48;77.70;;;37.20;;
6223;SDS011;3145;42.726;23.342;2022-11-15T09:35:15;77.87;;;39.33;;
6223;SDS011;3145;42.726;23.342;2022-11-15T09:37:42;74.67;;;37.67;;
6223;SDS011;3145;42.726;23.342;2022-11-15T09:40:09;77.70;;;38.60;;
6223;SDS011;3145;42.726;23.342;2022-11-15T09:42:45;92.10;;;41.63;;
6223;SDS011;3145;42.726;23.342;2022-11-15T09:45:31;84.87;;;40.03;;
6223;SDS011;3145;42.726;23.342;2022-11-15T09:48:06;95.53;;;43.00;;
6223;SDS011;3145;42.726;23.342;2022-11-15T09:51:03;99.77;;;44.80;;
6223;SDS011;3145;42.726;23.342;2022-11-15T09:53:36;98.20;;;43.77;;
6223;SDS011;3145;42.726;23.342;2022-11-15T09:56:11;96.87;;;44.40;;
6223;SDS011;3145;42.726;23.342;2022-11-15T09:58:43;112.80;;;47.10;;
6223;SDS011;3145;42.726;23.342;2022-11-15T10:01:19;107.57;;;45.53;;
6223;SDS011;3145;42.726;23.342;2022-11-15T10:03:54;98.57;;;46.17;;
6223;SDS011;3145;42.726;23.342;2022-11-15T10:06:24;106.53;;;47.70;;
6223;SDS011;3145;42.726;23.342;2022-11-15T10:08:54;134.23;;;55.47;;
6223;SDS011;3145;42.726;23.342;2022-11-15T10:11:28;121.90;;;54.87;;
6223;SDS011;3145;42.726;23.342;2022-11-15T10:13:59;141.47;;;59.03;;
6223;SDS011;3145;42.726;23.342;2022-11-15T10:19:42;128.73;;;57.60;;
6223;SDS011;3145;42.726;23.342;2022-11-15T10:22:25;130.87;;;56.67;;
6223;SDS011;3145;42.726;23.342;2022-11-15T10:25:00;119.37;;;52.93;;
6223;SDS011;3145;42.726;23.342;2022-11-15T10:27:39;130.53;;;57.53;;
6223;SDS011;3145;42.726;23.342;2022-11-15T10:30:11;124.27;;;54.83;;
6223;SDS011;3145;42.726;23.342;2022-11-15T10:32:41;118.37;;;54.97;;
6223;SDS011;3145;42.726;23.342;2022-11-15T10:35:18;127.10;;;54.77;;
6223;SDS011;3145;42.726;23.342;2022-11-15T10:37:47;127.63;;;56.07;;
6223;SDS011;3145;42.726;23.342;2022-11-15T10:40:16;109.63;;;55.30;;
6223;SDS011;3145;42.726;23.342;2022-11-15T10:42:45;103.50;;;48.40;;
6223;SDS011;3145;42.726;23.342;2022-11-15T10:45:30;109.60;;;51.53;;
6223;SDS011;3145;42.726;23.342;2022-11-15T10:50:50;110.43;;;48.10;;
6223;SDS011;3145;42.726;23.342;2022-11-15T10:53:23;107.17;;;51.23;;
6223;SDS011;3145;42.726;23.342;2022-11-15T10:55:53;115.63;;;54.93;;
6223;SDS011;3145;42.726;23.342;2022-11-15T10:58:30;104.97;;;49.87;;
6223;SDS011;3145;42.726;23.342;2022-11-15T11:01:09;113.50;;;55.20;;
6223;SDS011;3145;42.726;23.342;2022-11-15T11:03:38;109.10;;;54.17;;
6223;SDS011;3145;42.726;23.342;2022-11-15T11:06:08;99.60;;;46.47;;
6223;SDS011;3145;42.726;23.342;2022-11-15T11:08:37;110.00;;;54.20;;
6223;SDS011;3145;42.726;23.342;2022-11-15T11:11:05;103.67;;;50.67;;
6223;SDS011;3145;42.726;23.342;2022-11-15T11:13:34;123.67;;;54.33;;
6223;SDS011;3145;42.726;23.342;2022-11-15T11:18:51;106.27;;;53.00;;
6223;SDS011;3145;42.726;23.342;2022-11-15T11:21:26;121.03;;;56.57;;
6223;SDS011;3145;42.726;23.342;2022-11-15T11:24:04;140.93;;;62.27;;
6223;SDS011;3145;42.726;23.342;2022-11-15T11:26:41;113.70;;;53.07;;
6223;SDS011;3145;42.726;23.342;2022-11-15T11:29:21;113.70;;;55.30;;
6223;SDS011;3145;42.726;23.342;2022-11-15T11:31:58;114.83;;;54.20;;
6223;SDS011;3145;42.726;23.342;2022-11-15T11:34:37;123.30;;;57.63;;
6223;SDS011;3145;42.726;23.342;2022-11-15T11:37:16;99.83;;;47.63;;
6223;SDS011;3145;42.726;23.342;2022-11-15T11:39:50;108.33;;;53.07;;
6223;SDS011;3145;42.726;23.342;2022-11-15T11:42:37;111.20;;;55.00;;
6223;SDS011;3145;42.726;23.342;2022-11-15T11:45:15;127.63;;;57.43;;
6223;SDS011;3145;42.726;23.342;2022-11-15T11:47:47;132.47;;;59.43;;
6223;SDS011;3145;42.726;23.342;2022-11-15T11:50:20;122.23;;;58.23;;
6223;SDS011;3145;42.726;23.342;2022-11-15T11:52:53;116.83;;;58.33;;
6223;SDS011;3145;42.726;23.342;2022-11-15T11:55:26;110.97;;;54.50;;
6223;SDS011;3145;42.726;23.342;2022-11-15T11:58:00;110.63;;;54.93;;
6223;SDS011;3145;42.726;23.342;2022-11-15T12:00:33;126.77;;;60.83;;
6223;SDS011;3145;42.726;23.342;2022-11-15T12:03:08;121.10;;;60.87;;
6223;SDS011;3145;42.726;23.342;2022-11-15T12:05:39;127.90;;;64.90;;
6223;SDS011;3145;42.726;23.342;2022-11-15T12:08:18;132.23;;;64.00;;
6223;SDS011;3145;42.726;23.342;2022-11-15T12:10:53;124.50;;;59.67;;
6223;SDS011;3145;42.726;23.342;2022-11-15T12:13:33;129.60;;;63.67;;
6223;SDS011;3145;42.726;23.342;2022-11-15T12:16:03;133.70;;;64.13;;
6223;SDS011;3145;42.726;23.342;2022-11-15T12:18:46;132.07;;;63.00;;
6223;SDS011;3145;42.726;23.342;2022-11-15T12:21:16;130.50;;;63.80;;
6223;SDS011;3145;42.726;23.342;2022-11-15T12:23:49;128.63;;;64.17;;
6223;SDS011;3145;42.726;23.342;2022-11-15T12:26:21;132.13;;;64.87;;
6223;SDS011;3145;42.726;23.342;2022-11-15T12:28:52;118.53;;;61.07;;
6223;SDS011;3145;42.726;23.342;2022-11-15T12:31:25;124.90;;;62.63;;
6223;SDS011;3145;42.726;23.342;2022-11-15T12:34:00;90.53;;;47.93;;
6223;SDS011;3145;42.726;23.342;2022-11-15T12:36:32;92.50;;;47.00;;
6223;SDS011;3145;42.726;23.342;2022-11-15T12:39:03;112.80;;;58.20;;
6223;SDS011;3145;42.726;23.342;2022-11-15T12:41:32;99.30;;;49.60;;
6223;SDS011;3145;42.726;23.342;2022-11-15T12:44:00;95.40;;;48.47;;
6223;SDS011;3145;42.726;23.342;2022-11-15T12:49:45;83.13;;;46.10;;
6223;SDS011;3145;42.726;23.342;2022-11-15T12:52:13;83.97;;;45.87;;
6223;SDS011;3145;42.726;23.342;2022-11-15T12:54:50;77.83;;;44.77;;
6223;SDS011;3145;42.726;23.342;2022-11-15T12:57:27;88.90;;;45.37;;
6223;SDS011;3145;42.726;23.342;2022-11-15T12:59:59;102.93;;;48.27;;
6223;SDS011;3145;42.726;23.342;2022-11-15T13:02:29;98.73;;;50.73;;
6223;SDS011;3145;42.726;23.342;2022-11-15T13:07:59;96.63;;;49.63;;
6223;SDS011;3145;42.726;23.342;2022-11-15T13:10:29;125.50;;;61.30;;
6223;SDS011;3145;42.726;23.342;2022-11-15T13:12:58;106.03;;;51.77;;
6223;SDS011;3145;42.726;23.342;2022-11-15T13:15:35;108.17;;;51.00;;
6223;SDS011;3145;42.726;23.342;2022-11-15T13:21:01;93.53;;;48.53;;
6223;SDS011;3145;42.726;23.342;2022-11-15T13:23:53;99.30;;;49.67;;
6223;SDS011;3145;42.726;23.342;2022-11-15T13:26:21;94.50;;;50.70;;
6223;SDS011;3145;42.726;23.342;2022-11-15T13:28:49;102.67;;;52.10;;
6223;SDS011;3145;42.726;23.342;2022-11-15T13:34:15;90.93;;;48.87;;
6223;SDS011;3145;42.726;23.342;2022-11-15T13:36:52;92.77;;;51.37;;
6223;SDS011;3145;42.726;23.342;2022-11-15T13:39:26;99.63;;;53.03;;
6223;SDS011;3145;42.726;23.342;2022-11-15T13:41:55;101.30;;;51.17;;
6223;SDS011;3145;42.726;23.342;2022-11-15T13:44:22;106.20;;;53.60;;
6223;SDS011;3145;42.726;23.342;2022-11-15T13:47:00;105.37;;;54.70;;
6223;SDS011;3145;42.726;23.342;2022-11-15T13:49:28;112.63;;;58.47;;
6223;SDS011;3145;42.726;23.342;2022-11-15T13:51:57;103.37;;;54.17;;
6223;SDS011;3145;42.726;23.342;2022-11-15T13:54:27;96.57;;;52.03;;
6223;SDS011;3145;42.726;23.342;2022-11-15T13:56:57;116.47;;;57.43;;
6223;SDS011;3145;42.726;23.342;2022-11-15T13:59:26;138.83;;;66.20;;
6223;SDS011;3145;42.726;23.342;2022-11-15T14:01:55;107.67;;;55.23;;
6223;SDS011;3145;42.726;23.342;2022-11-15T14:04:26;139.17;;;66.60;;
6223;SDS011;3145;42.726;23.342;2022-11-15T14:06:58;117.23;;;56.77;;
6223;SDS011;3145;42.726;23.342;2022-11-15T14:12:22;124.33;;;64.33;;
6223;SDS011;3145;42.726;23.342;2022-11-15T14:14:55;114.40;;;60.73;;
6223;SDS011;3145;42.726;23.342;2022-11-15T14:17:32;142.70;;;80.43;;
6223;SDS011;3145;42.726;23.342;2022-11-15T14:20:01;163.23;;;78.80;;
6223;SDS011;3145;42.726;23.342;2022-11-15T14:22:29;127.77;;;63.93;;
6223;SDS011;3145;42.726;23.342;2022-11-15T14:25:17;129.43;;;60.97;;
6223;SDS011;3145;42.726;23.342;2022-11-15T14:27:57;171.17;;;71.67;;
6223;SDS011;3145;42.726;23.342;2022-11-15T14:30:36;211.53;;;85.17;;
6223;SDS011;3145;42.726;23.342;2022-11-15T14:33:11;195.47;;;81.77;;
6223;SDS011;3145;42.726;23.342;2022-11-15T14:35:45;211.13;;;88.50;;
6223;SDS011;3145;42.726;23.342;2022-11-15T14:38:11;155.87;;;68.97;;
6223;SDS011;3145;42.726;23.342;2022-11-15T14:40:40;154.73;;;68.53;;
6223;SDS011;3145;42.726;23.342;2022-11-15T14:43:08;172.57;;;72.03;;
6223;SDS011;3145;42.726;23.342;2022-11-15T14:45:36;178.90;;;77.03;;
6223;SDS011;3145;42.726;23.342;2022-11-15T14:48:03;262.57;;;120.73;;
6223;SDS011;3145;42.726;23.342;2022-11-15T14:50:30;180.07;;;85.70;;
6223;SDS011;3145;42.726;23.342;2022-11-15T14:52:58;143.30;;;70.27;;
6223;SDS011;3145;42.726;23.342;2022-11-15T14:55:26;128.73;;;64.50;;
6223;SDS011;3145;42.726;23.342;2022-11-15T14:57:57;114.63;;;58.13;;
6223;SDS011;3145;42.726;23.342;2022-11-15T15:00:24;123.37;;;59.67;;
6223;SDS011;3145;42.726;23.342;2022-11-15T15:02:52;111.50;;;56.37;;
6223;SDS011;3145;42.726;23.342;2022-11-15T15:05:20;120.33;;;60.00;;
6223;SDS011;3145;42.726;23.342;2022-11-15T15:07:49;138.87;;;64.20;;
6223;SDS011;3145;42.726;23.342;2022-11-15T15:10:17;111.87;;;52.00;;